sensor_id;sensor_type;location;lat;lon;timestamp;temperature;humidity
36716;DHT22;22699;51.034;3.730;2023-04-03T00:02:03;6.10;99.90
36716;DHT22;22699;51.034;3.730;2023-04-03T00:04:29;6.10;99.90
36716;DHT22;22699;51.034;3.730;2023-04-03T00:06:55;6.10;99.90
36716;DHT22;22699;51.034;3.730;2023-04-03T00:09:21;6.10;99.90
36716;DHT22;22699;51.034;3.730;2023-04-03T00:11:48;6.00;99.90
36716;DHT22;22699;51.034;3.730;2023-04-03T00:14:13;6.00;99.90
36716;DHT22;22699;51.034;3.730;2023-04-03T00:16:41;5.90;99.90
36716;DHT22;22699;51.034;3.730;2023-04-03T00:19:06;5.90;99.90
36716;DHT22;22699;51.034;3.730;2023-04-03T00:21:33;6.10;99.90
36716;DHT22;22699;51.034;3.730;2023-04-03T00:23:59;6.20;99.90
36716;DHT22;22699;51.034;3.730;2023-04-03T00:26:25;6.10;99.90
36716;DHT22;22699;51.034;3.730;2023-04-03T00:28:51;6.10;99.90
36716;DHT22;22699;51.034;3.730;2023-04-03T00:31:16;5.90;99.90
36716;DHT22;22699;51.034;3.730;2023-04-03T00:33:43;6.20;99.90
36716;DHT22;22699;51.034;3.730;2023-04-03T00:36:10;5.90;99.90
36716;DHT22;22699;51.034;3.730;2023-04-03T00:38:37;6.00;99.90
36716;DHT22;22699;51.034;3.730;2023-04-03T00:41:03;6.50;99.90
36716;DHT22;22699;51.034;3.730;2023-04-03T00:43:29;5.80;99.90
36716;DHT22;22699;51.034;3.730;2023-04-03T00:45:56;5.80;99.90
36716;DHT22;22699;51.034;3.730;2023-04-03T00:48:24;5.80;99.90
36716;DHT22;22699;51.034;3.730;2023-04-03T00:50:52;5.70;99.90
36716;DHT22;22699;51.034;3.730;2023-04-03T00:53:23;5.80;99.90
36716;DHT22;22699;51.034;3.730;2023-04-03T00:55:51;5.80;99.90
36716;DHT22;22699;51.034;3.730;2023-04-03T00:58:23;5.80;99.90
36716;DHT22;22699;51.034;3.730;2023-04-03T01:00:54;6.10;99.90
36716;DHT22;22699;51.034;3.730;2023-04-03T01:03:26;5.90;99.90
36716;DHT22;22699;51.034;3.730;2023-04-03T01:05:52;5.70;99.90
36716;DHT22;22699;51.034;3.730;2023-04-03T01:08:18;5.70;99.90
36716;DHT22;22699;51.034;3.730;2023-04-03T01:10:44;5.70;99.90
36716;DHT22;22699;51.034;3.730;2023-04-03T01:13:25;5.70;99.90
36716;DHT22;22699;51.034;3.730;2023-04-03T01:15:51;5.70;99.90
36716;DHT22;22699;51.034;3.730;2023-04-03T01:18:18;5.60;99.90
36716;DHT22;22699;51.034;3.730;2023-04-03T01:23:40;5.60;99.90
36716;DHT22;22699;51.034;3.730;2023-04-03T01:26:10;5.50;99.90
36716;DHT22;22699;51.034;3.730;2023-04-03T01:28:38;5.50;99.90
36716;DHT22;22699;51.034;3.730;2023-04-03T01:40:40;5.50;99.90
36716;DHT22;22699;51.034;3.730;2023-04-03T01:43:16;5.50;99.90
36716;DHT22;22699;51.034;3.730;2023-04-03T01:45:53;5.50;99.90
36716;DHT22;22699;51.034;3.730;2023-04-03T01:51:56;5.50;99.90
36716;DHT22;22699;51.034;3.730;2023-04-03T01:54:40;5.50;99.90
36716;DHT22;22699;51.034;3.730;2023-04-03T01:57:32;5.50;99.90
36716;DHT22;22699;51.034;3.730;2023-04-03T02:00:03;5.40;99.90
36716;DHT22;22699;51.034;3.730;2023-04-03T02:02:37;5.40;99.90
36716;DHT22;22699;51.034;3.730;2023-04-03T02:05:37;5.40;99.90
36716;DHT22;22699;51.034;3.730;2023-04-03T02:08:33;5.40;99.90
36716;DHT22;22699;51.034;3.730;2023-04-03T02:10:59;5.40;99.90
36716;DHT22;22699;51.034;3.730;2023-04-03T02:13:25;5.30;99.90
36716;DHT22;22699;51.034;3.730;2023-04-03T02:15:52;5.30;99.90
36716;DHT22;22699;51.034;3.730;2023-04-03T02:18:18;5.30;99.90
36716;DHT22;22699;51.034;3.730;2023-04-03T02:20:47;5.40;99.90
36716;DHT22;22699;51.034;3.730;2023-04-03T02:26:36;5.40;99.90
36716;DHT22;22699;51.034;3.730;2023-04-03T02:32:24;5.40;99.90
36716;DHT22;22699;51.034;3.730;2023-04-03T02:38:14;5.40;99.90
36716;DHT22;22699;51.034;3.730;2023-04-03T02:44:32;5.20;99.90
36716;DHT22;22699;51.034;3.730;2023-04-03T02:50:24;5.10;99.90
36716;DHT22;22699;51.034;3.730;2023-04-03T02:53:29;5.20;99.90
36716;DHT22;22699;51.034;3.730;2023-04-03T02:56:11;5.10;99.90
36716;DHT22;22699;51.034;3.730;2023-04-03T02:58:52;5.10;99.90
36716;DHT22;22699;51.034;3.730;2023-04-03T03:04:40;5.10;99.90
36716;DHT22;22699;51.034;3.730;2023-04-03T03:07:09;5.00;99.90
36716;DHT22;22699;51.034;3.730;2023-04-03T03:09:52;5.10;99.90
36716;DHT22;22699;51.034;3.730;2023-04-03T03:12:36;5.10;99.90
36716;DHT22;22699;51.034;3.730;2023-04-03T03:15:02;5.00;99.90
36716;DHT22;22699;51.034;3.730;2023-04-03T03:17:44;5.00;99.90
36716;DHT22;22699;51.034;3.730;2023-04-03T03:20:14;4.90;99.90
36716;DHT22;22699;51.034;3.730;2023-04-03T03:26:12;5.00;99.90
36716;DHT22;22699;51.034;3.730;2023-04-03T03:29:04;4.90;99.90
36716;DHT22;22699;51.034;3.730;2023-04-03T03:31:33;4.90;99.90
36716;DHT22;22699;51.034;3.730;2023-04-03T03:34:01;4.90;99.90
36716;DHT22;22699;51.034;3.730;2023-04-03T03:36:33;5.20;99.90
36716;DHT22;22699;51.034;3.730;2023-04-03T03:39:03;4.90;99.90
36716;DHT22;22699;51.034;3.730;2023-04-03T03:41:30;4.90;99.90
36716;DHT22;22699;51.034;3.730;2023-04-03T03:43:56;4.90;99.90
36716;DHT22;22699;51.034;3.730;2023-04-03T03:46:22;5.10;99.90
36716;DHT22;22699;51.034;3.730;2023-04-03T03:48:47;4.90;99.90
36716;DHT22;22699;51.034;3.730;2023-04-03T03:51:13;4.80;99.90
36716;DHT22;22699;51.034;3.730;2023-04-03T03:53:39;4.80;99.90
36716;DHT22;22699;51.034;3.730;2023-04-03T03:56:07;4.80;99.90
36716;DHT22;22699;51.034;3.730;2023-04-03T03:58:33;4.90;99.90
36716;DHT22;22699;51.034;3.730;2023-04-03T04:01:05;4.90;99.90
36716;DHT22;22699;51.034;3.730;2023-04-03T04:03:33;4.90;99.90
36716;DHT22;22699;51.034;3.730;2023-04-03T04:05:58;4.80;99.90
36716;DHT22;22699;51.034;3.730;2023-04-03T04:08:27;4.80;99.90
36716;DHT22;22699;51.034;3.730;2023-04-03T04:10:52;4.80;99.90
36716;DHT22;22699;51.034;3.730;2023-04-03T04:13:20;5.20;99.90
36716;DHT22;22699;51.034;3.730;2023-04-03T04:15:46;4.80;99.90
36716;DHT22;22699;51.034;3.730;2023-04-03T04:18:14;4.70;99.90
36716;DHT22;22699;51.034;3.730;2023-04-03T04:20:44;4.80;99.90
36716;DHT22;22699;51.034;3.730;2023-04-03T04:23:10;4.80;99.90
36716;DHT22;22699;51.034;3.730;2023-04-03T04:25:36;4.80;99.90
36716;DHT22;22699;51.034;3.730;2023-04-03T04:28:01;4.90;99.90
36716;DHT22;22699;51.034;3.730;2023-04-03T04:30:29;4.80;99.90
36716;DHT22;22699;51.034;3.730;2023-04-03T04:32:55;4.80;99.90
36716;DHT22;22699;51.034;3.730;2023-04-03T04:35:21;4.70;99.90
36716;DHT22;22699;51.034;3.730;2023-04-03T04:37:47;4.60;99.90
36716;DHT22;22699;51.034;3.730;2023-04-03T04:40:13;4.70;99.90
36716;DHT22;22699;51.034;3.730;2023-04-03T04:42:40;4.80;99.90
36716;DHT22;22699;51.034;3.730;2023-04-03T04:45:09;4.80;99.90
36716;DHT22;22699;51.034;3.730;2023-04-03T04:47:35;4.80;99.90
36716;DHT22;22699;51.034;3.730;2023-04-03T04:50:06;4.80;99.90
36716;DHT22;22699;51.034;3.730;2023-04-03T04:52:32;4.70;99.90
36716;DHT22;22699;51.034;3.730;2023-04-03T04:54:58;4.80;99.90
36716;DHT22;22699;51.034;3.730;2023-04-03T04:57:23;4.80;99.90
36716;DHT22;22699;51.034;3.730;2023-04-03T04:59:49;5.00;99.90
36716;DHT22;22699;51.034;3.730;2023-04-03T05:02:15;4.80;99.90
36716;DHT22;22699;51.034;3.730;2023-04-03T05:04:42;4.80;99.90
36716;DHT22;22699;51.034;3.730;2023-04-03T05:07:08;4.70;99.90
36716;DHT22;22699;51.034;3.730;2023-04-03T05:09:37;4.80;99.90
36716;DHT22;22699;51.034;3.730;2023-04-03T05:12:06;4.70;99.90
36716;DHT22;22699;51.034;3.730;2023-04-03T05:14:33;4.70;99.90
36716;DHT22;22699;51.034;3.730;2023-04-03T05:16:59;4.70;99.90
36716;DHT22;22699;51.034;3.730;2023-04-03T05:19:26;4.60;99.90
36716;DHT22;22699;51.034;3.730;2023-04-03T05:21:51;4.70;99.90
36716;DHT22;22699;51.034;3.730;2023-04-03T05:24:18;4.70;99.90
36716;DHT22;22699;51.034;3.730;2023-04-03T05:26:44;4.70;99.90
36716;DHT22;22699;51.034;3.730;2023-04-03T05:29:10;4.70;99.90
36716;DHT22;22699;51.034;3.730;2023-04-03T05:31:39;4.70;99.90
36716;DHT22;22699;51.034;3.730;2023-04-03T05:34:09;4.70;99.90
36716;DHT22;22699;51.034;3.730;2023-04-03T05:36:36;4.70;99.90
36716;DHT22;22699;51.034;3.730;2023-04-03T05:39:03;4.60;99.90
36716;DHT22;22699;51.034;3.730;2023-04-03T05:41:29;4.70;99.90
36716;DHT22;22699;51.034;3.730;2023-04-03T05:43:56;4.70;99.90
36716;DHT22;22699;51.034;3.730;2023-04-03T05:46:22;4.80;99.90
36716;DHT22;22699;51.034;3.730;2023-04-03T05:48:48;5.40;99.90
36716;DHT22;22699;51.034;3.730;2023-04-03T05:51:20;4.80;99.90
36716;DHT22;22699;51.034;3.730;2023-04-03T05:54:16;5.00;99.90
36716;DHT22;22699;51.034;3.730;2023-04-03T05:56:50;4.70;99.90
36716;DHT22;22699;51.034;3.730;2023-04-03T05:59:17;5.20;99.90
36716;DHT22;22699;51.034;3.730;2023-04-03T06:01:45;4.90;99.90
36716;DHT22;22699;51.034;3.730;2023-04-03T06:04:17;4.80;99.90
36716;DHT22;22699;51.034;3.730;2023-04-03T06:06:56;4.70;99.90
36716;DHT22;22699;51.034;3.730;2023-04-03T06:09:33;4.70;99.90
36716;DHT22;22699;51.034;3.730;2023-04-03T06:12:07;4.70;99.90
36716;DHT22;22699;51.034;3.730;2023-04-03T06:14:33;4.80;99.90
36716;DHT22;22699;51.034;3.730;2023-04-03T06:17:00;4.80;99.90
36716;DHT22;22699;51.034;3.730;2023-04-03T06:19:28;4.80;99.90
36716;DHT22;22699;51.034;3.730;2023-04-03T06:21:56;4.90;99.90
36716;DHT22;22699;51.034;3.730;2023-04-03T06:24:24;5.00;99.90
36716;DHT22;22699;51.034;3.730;2023-04-03T06:26:52;5.10;99.90
36716;DHT22;22699;51.034;3.730;2023-04-03T06:29:19;5.10;99.90
36716;DHT22;22699;51.034;3.730;2023-04-03T06:31:46;5.20;99.90
36716;DHT22;22699;51.034;3.730;2023-04-03T06:34:13;5.20;99.90
36716;DHT22;22699;51.034;3.730;2023-04-03T06:36:40;5.20;99.90
36716;DHT22;22699;51.034;3.730;2023-04-03T06:39:25;5.20;99.90
36716;DHT22;22699;51.034;3.730;2023-04-03T06:41:51;5.40;99.90
36716;DHT22;22699;51.034;3.730;2023-04-03T06:44:17;5.80;99.90
36716;DHT22;22699;51.034;3.730;2023-04-03T06:46:45;6.00;99.90
36716;DHT22;22699;51.034;3.730;2023-04-03T06:49:12;6.00;99.90
36716;DHT22;22699;51.034;3.730;2023-04-03T06:51:38;5.50;99.90
36716;DHT22;22699;51.034;3.730;2023-04-03T06:54:05;5.40;99.90
36716;DHT22;22699;51.034;3.730;2023-04-03T06:56:32;5.30;99.90
36716;DHT22;22699;51.034;3.730;2023-04-03T06:59:12;5.30;99.90
36716;DHT22;22699;51.034;3.730;2023-04-03T07:01:41;5.40;99.90
36716;DHT22;22699;51.034;3.730;2023-04-03T07:04:10;5.40;99.90
36716;DHT22;22699;51.034;3.730;2023-04-03T07:06:38;5.60;99.90
36716;DHT22;22699;51.034;3.730;2023-04-03T07:09:10;5.60;99.90
36716;DHT22;22699;51.034;3.730;2023-04-03T07:11:37;5.70;99.90
36716;DHT22;22699;51.034;3.730;2023-04-03T07:14:18;5.70;99.90
36716;DHT22;22699;51.034;3.730;2023-04-03T07:16:43;5.80;99.90
36716;DHT22;22699;51.034;3.730;2023-04-03T07:19:24;6.00;99.90
36716;DHT22;22699;51.034;3.730;2023-04-03T07:21:53;6.20;99.90
36716;DHT22;22699;51.034;3.730;2023-04-03T07:24:20;6.20;99.90
36716;DHT22;22699;51.034;3.730;2023-04-03T07:26:49;6.30;99.90
36716;DHT22;22699;51.034;3.730;2023-04-03T07:29:32;6.40;99.90
36716;DHT22;22699;51.034;3.730;2023-04-03T07:31:58;6.40;99.90
36716;DHT22;22699;51.034;3.730;2023-04-03T07:34:26;6.50;99.90
36716;DHT22;22699;51.034;3.730;2023-04-03T07:36:53;6.50;99.90
36716;DHT22;22699;51.034;3.730;2023-04-03T07:39:21;6.50;99.90
36716;DHT22;22699;51.034;3.730;2023-04-03T07:41:46;6.40;99.90
36716;DHT22;22699;51.034;3.730;2023-04-03T07:44:16;6.40;99.90
36716;DHT22;22699;51.034;3.730;2023-04-03T07:46:42;6.40;99.90
36716;DHT22;22699;51.034;3.730;2023-04-03T07:49:08;6.70;99.90
36716;DHT22;22699;51.034;3.730;2023-04-03T07:51:34;8.00;99.90
36716;DHT22;22699;51.034;3.730;2023-04-03T07:54:02;10.60;99.90
36716;DHT22;22699;51.034;3.730;2023-04-03T07:56:29;14.00;97.30
36716;DHT22;22699;51.034;3.730;2023-04-03T07:58:55;16.20;91.60
36716;DHT22;22699;51.034;3.730;2023-04-03T08:01:20;18.70;82.50
36716;DHT22;22699;51.034;3.730;2023-04-03T08:03:46;21.00;71.70
36716;DHT22;22699;51.034;3.730;2023-04-03T08:06:11;22.80;60.90
36716;DHT22;22699;51.034;3.730;2023-04-03T08:08:39;23.90;56.80
36716;DHT22;22699;51.034;3.730;2023-04-03T08:11:05;25.40;52.80
36716;DHT22;22699;51.034;3.730;2023-04-03T08:13:34;27.30;49.50
36716;DHT22;22699;51.034;3.730;2023-04-03T08:16:12;26.40;45.90
36716;DHT22;22699;51.034;3.730;2023-04-03T08:18:44;26.10;46.50
36716;DHT22;22699;51.034;3.730;2023-04-03T08:21:11;25.80;45.70
36716;DHT22;22699;51.034;3.730;2023-04-03T08:23:39;26.70;45.10
36716;DHT22;22699;51.034;3.730;2023-04-03T08:26:10;27.80;44.70
36716;DHT22;22699;51.034;3.730;2023-04-03T08:28:36;29.90;42.40
36716;DHT22;22699;51.034;3.730;2023-04-03T08:31:06;29.80;40.40
36716;DHT22;22699;51.034;3.730;2023-04-03T08:33:33;29.40;41.30
36716;DHT22;22699;51.034;3.730;2023-04-03T08:35:59;28.80;41.00
36716;DHT22;22699;51.034;3.730;2023-04-03T08:38:25;28.20;41.00
36716;DHT22;22699;51.034;3.730;2023-04-03T08:45:15;28.50;40.80
36716;DHT22;22699;51.034;3.730;2023-04-03T08:47:28;29.40;40.30
36716;DHT22;22699;51.034;3.730;2023-04-03T08:50:00;29.60;39.30
36716;DHT22;22699;51.034;3.730;2023-04-03T08:52:39;28.10;39.00
36716;DHT22;22699;51.034;3.730;2023-04-03T08:55:43;28.00;38.10
36716;DHT22;22699;51.034;3.730;2023-04-03T08:58:16;27.60;38.90
36716;DHT22;22699;51.034;3.730;2023-04-03T09:01:02;29.90;38.50
36716;DHT22;22699;51.034;3.730;2023-04-03T09:03:31;32.00;37.10
36716;DHT22;22699;51.034;3.730;2023-04-03T09:06:12;34.10;34.90
36716;DHT22;22699;51.034;3.730;2023-04-03T09:09:21;32.90;34.20
36716;DHT22;22699;51.034;3.730;2023-04-03T09:17:33;32.20;33.80
36716;DHT22;22699;51.034;3.730;2023-04-03T09:22:38;32.50;34.40
36716;DHT22;22699;51.034;3.730;2023-04-03T09:25:18;30.60;34.60
36716;DHT22;22699;51.034;3.730;2023-04-03T09:27:45;28.40;36.70
36716;DHT22;22699;51.034;3.730;2023-04-03T09:30:22;28.10;37.60
36716;DHT22;22699;51.034;3.730;2023-04-03T09:32:51;29.00;36.50
36716;DHT22;22699;51.034;3.730;2023-04-03T09:35:27;30.60;35.40
36716;DHT22;22699;51.034;3.730;2023-04-03T09:37:59;30.00;35.10
36716;DHT22;22699;51.034;3.730;2023-04-03T09:42:52;29.50;35.40
36716;DHT22;22699;51.034;3.730;2023-04-03T09:56:25;26.50;36.60
36716;DHT22;22699;51.034;3.730;2023-04-03T10:01:38;21.30;40.70
36716;DHT22;22699;51.034;3.730;2023-04-03T10:04:06;17.90;46.30
36716;DHT22;22699;51.034;3.730;2023-04-03T10:06:38;16.60;49.00
36716;DHT22;22699;51.034;3.730;2023-04-03T10:09:20;15.80;49.20
36716;DHT22;22699;51.034;3.730;2023-04-03T10:12:06;13.90;52.90
36716;DHT22;22699;51.034;3.730;2023-04-03T10:14:33;12.90;56.10
36716;DHT22;22699;51.034;3.730;2023-04-03T10:19:58;12.30;58.30
36716;DHT22;22699;51.034;3.730;2023-04-03T10:25:36;11.40;60.20
36716;DHT22;22699;51.034;3.730;2023-04-03T10:28:05;11.30;61.20
36716;DHT22;22699;51.034;3.730;2023-04-03T10:41:21;10.40;60.80
36716;DHT22;22699;51.034;3.730;2023-04-03T10:44:14;10.70;60.60
36716;DHT22;22699;51.034;3.730;2023-04-03T10:46:51;10.40;60.40
36716;DHT22;22699;51.034;3.730;2023-04-03T10:49:39;10.40;61.00
36716;DHT22;22699;51.034;3.730;2023-04-03T10:52:28;10.40;62.00
36716;DHT22;22699;51.034;3.730;2023-04-03T10:55:05;10.50;60.60
36716;DHT22;22699;51.034;3.730;2023-04-03T10:57:31;10.70;60.40
36716;DHT22;22699;51.034;3.730;2023-04-03T11:00:10;10.40;60.00
36716;DHT22;22699;51.034;3.730;2023-04-03T11:02:57;10.50;60.20
36716;DHT22;22699;51.034;3.730;2023-04-03T11:05:31;10.60;61.50
36716;DHT22;22699;51.034;3.730;2023-04-03T11:08:04;10.50;61.50
36716;DHT22;22699;51.034;3.730;2023-04-03T11:10:42;10.50;61.50
36716;DHT22;22699;51.034;3.730;2023-04-03T11:13:17;10.40;62.00
36716;DHT22;22699;51.034;3.730;2023-04-03T11:15:44;10.40;62.20
36716;DHT22;22699;51.034;3.730;2023-04-03T11:18:21;10.50;61.20
36716;DHT22;22699;51.034;3.730;2023-04-03T11:21:47;10.50;62.30
36716;DHT22;22699;51.034;3.730;2023-04-03T11:23:48;10.50;60.00
36716;DHT22;22699;51.034;3.730;2023-04-03T11:26:22;10.70;60.30
36716;DHT22;22699;51.034;3.730;2023-04-03T11:29:02;10.40;60.50
36716;DHT22;22699;51.034;3.730;2023-04-03T11:34:36;10.50;61.80
36716;DHT22;22699;51.034;3.730;2023-04-03T11:42:48;11.20;59.00
36716;DHT22;22699;51.034;3.730;2023-04-03T11:47:51;11.30;57.30
36716;DHT22;22699;51.034;3.730;2023-04-03T11:53:26;10.70;56.50
36716;DHT22;22699;51.034;3.730;2023-04-03T12:01:42;10.60;56.30
36716;DHT22;22699;51.034;3.730;2023-04-03T12:04:10;10.70;56.80
36716;DHT22;22699;51.034;3.730;2023-04-03T12:11:56;11.10;54.40
36716;DHT22;22699;51.034;3.730;2023-04-03T12:14:23;11.10;55.00
36716;DHT22;22699;51.034;3.730;2023-04-03T12:16:53;11.50;54.00
36716;DHT22;22699;51.034;3.730;2023-04-03T12:19:38;11.40;53.20
36716;DHT22;22699;51.034;3.730;2023-04-03T12:22:20;11.30;52.80
36716;DHT22;22699;51.034;3.730;2023-04-03T12:24:55;11.30;53.40
36716;DHT22;22699;51.034;3.730;2023-04-03T12:27:23;11.30;53.80
36716;DHT22;22699;51.034;3.730;2023-04-03T12:30:00;11.30;54.40
36716;DHT22;22699;51.034;3.730;2023-04-03T12:32:46;11.10;54.20
36716;DHT22;22699;51.034;3.730;2023-04-03T12:35:37;11.10;54.50
36716;DHT22;22699;51.034;3.730;2023-04-03T12:44:12;11.50;52.60
36716;DHT22;22699;51.034;3.730;2023-04-03T12:46:50;11.50;54.10
36716;DHT22;22699;51.034;3.730;2023-04-03T12:49:38;11.50;53.10
36716;DHT22;22699;51.034;3.730;2023-04-03T12:54:53;11.90;52.90
36716;DHT22;22699;51.034;3.730;2023-04-03T12:57:25;11.40;52.90
36716;DHT22;22699;51.034;3.730;2023-04-03T12:59:53;11.60;54.70
36716;DHT22;22699;51.034;3.730;2023-04-03T13:02:44;11.70;53.50
36716;DHT22;22699;51.034;3.730;2023-04-03T13:05:16;11.80;53.60
36716;DHT22;22699;51.034;3.730;2023-04-03T13:07:42;11.80;53.80
36716;DHT22;22699;51.034;3.730;2023-04-03T13:12:55;11.90;51.60
36716;DHT22;22699;51.034;3.730;2023-04-03T13:15:29;12.20;48.90
36716;DHT22;22699;51.034;3.730;2023-04-03T13:17:56;11.90;49.90
36716;DHT22;22699;51.034;3.730;2023-04-03T13:20:27;11.70;50.70
36716;DHT22;22699;51.034;3.730;2023-04-03T13:23:14;11.70;50.90
36716;DHT22;22699;51.034;3.730;2023-04-03T13:25:43;11.70;50.20
36716;DHT22;22699;51.034;3.730;2023-04-03T13:28:16;12.00;51.00
36716;DHT22;22699;51.034;3.730;2023-04-03T13:30:56;12.00;51.40
36716;DHT22;22699;51.034;3.730;2023-04-03T13:33:26;12.10;50.60
36716;DHT22;22699;51.034;3.730;2023-04-03T13:38:32;12.10;50.30
36716;DHT22;22699;51.034;3.730;2023-04-03T13:44:44;12.00;51.70
36716;DHT22;22699;51.034;3.730;2023-04-03T13:51:57;11.80;49.60
36716;DHT22;22699;51.034;3.730;2023-04-03T13:54:37;11.80;50.00
36716;DHT22;22699;51.034;3.730;2023-04-03T13:57:14;12.10;49.10
36716;DHT22;22699;51.034;3.730;2023-04-03T13:59:41;12.10;47.60
36716;DHT22;22699;51.034;3.730;2023-04-03T14:04:54;12.30;47.20
36716;DHT22;22699;51.034;3.730;2023-04-03T14:07:25;12.20;46.60
36716;DHT22;22699;51.034;3.730;2023-04-03T14:09:59;12.20;47.50
36716;DHT22;22699;51.034;3.730;2023-04-03T14:12:35;12.30;47.30
36716;DHT22;22699;51.034;3.730;2023-04-03T14:15:05;12.10;47.40
36716;DHT22;22699;51.034;3.730;2023-04-03T14:17:39;12.20;47.10
36716;DHT22;22699;51.034;3.730;2023-04-03T14:20:06;12.20;47.60
36716;DHT22;22699;51.034;3.730;2023-04-03T14:22:34;12.10;47.60
36716;DHT22;22699;51.034;3.730;2023-04-03T14:25:00;12.20;47.50
36716;DHT22;22699;51.034;3.730;2023-04-03T14:27:38;12.00;47.20
36716;DHT22;22699;51.034;3.730;2023-04-03T14:30:17;12.00;48.40
36716;DHT22;22699;51.034;3.730;2023-04-03T14:32:46;11.90;48.20
36716;DHT22;22699;51.034;3.730;2023-04-03T14:35:15;12.10;47.90
36716;DHT22;22699;51.034;3.730;2023-04-03T14:37:45;12.20;47.60
36716;DHT22;22699;51.034;3.730;2023-04-03T14:40:24;12.60;47.50
36716;DHT22;22699;51.034;3.730;2023-04-03T14:42:53;12.60;47.10
36716;DHT22;22699;51.034;3.730;2023-04-03T14:45:22;12.50;46.50
36716;DHT22;22699;51.034;3.730;2023-04-03T14:47:53;12.60;47.40
36716;DHT22;22699;51.034;3.730;2023-04-03T14:50:20;12.40;47.20
36716;DHT22;22699;51.034;3.730;2023-04-03T14:52:47;12.10;47.40
36716;DHT22;22699;51.034;3.730;2023-04-03T14:55:18;12.30;47.70
36716;DHT22;22699;51.034;3.730;2023-04-03T14:57:45;12.40;47.80
36716;DHT22;22699;51.034;3.730;2023-04-03T15:00:20;12.20;47.00
36716;DHT22;22699;51.034;3.730;2023-04-03T15:02:46;12.20;47.40
36716;DHT22;22699;51.034;3.730;2023-04-03T15:05:14;12.20;49.00
36716;DHT22;22699;51.034;3.730;2023-04-03T15:07:41;12.00;48.20
36716;DHT22;22699;51.034;3.730;2023-04-03T15:10:28;11.80;48.30
36716;DHT22;22699;51.034;3.730;2023-04-03T15:12:54;11.80;48.80
36716;DHT22;22699;51.034;3.730;2023-04-03T15:15:22;11.80;48.70
36716;DHT22;22699;51.034;3.730;2023-04-03T15:17:52;12.10;48.80
36716;DHT22;22699;51.034;3.730;2023-04-03T15:20:23;12.30;48.60
36716;DHT22;22699;51.034;3.730;2023-04-03T15:22:49;12.50;48.00
36716;DHT22;22699;51.034;3.730;2023-04-03T15:25:15;12.50;48.00
36716;DHT22;22699;51.034;3.730;2023-04-03T15:27:41;12.60;48.20
36716;DHT22;22699;51.034;3.730;2023-04-03T15:30:11;12.60;47.80
36716;DHT22;22699;51.034;3.730;2023-04-03T15:32:38;12.50;48.00
36716;DHT22;22699;51.034;3.730;2023-04-03T15:35:04;12.60;48.00
36716;DHT22;22699;51.034;3.730;2023-04-03T15:37:30;12.70;47.30
36716;DHT22;22699;51.034;3.730;2023-04-03T15:39:56;13.00;47.40
36716;DHT22;22699;51.034;3.730;2023-04-03T15:42:21;13.30;46.20
36716;DHT22;22699;51.034;3.730;2023-04-03T15:44:47;13.30;46.00
36716;DHT22;22699;51.034;3.730;2023-04-03T15:47:13;13.00;45.90
36716;DHT22;22699;51.034;3.730;2023-04-03T15:49:39;12.70;46.10
36716;DHT22;22699;51.034;3.730;2023-04-03T15:52:04;12.60;46.90
36716;DHT22;22699;51.034;3.730;2023-04-03T15:54:30;12.80;46.30
36716;DHT22;22699;51.034;3.730;2023-04-03T15:56:57;12.70;46.60
36716;DHT22;22699;51.034;3.730;2023-04-03T15:59:22;12.70;46.60
36716;DHT22;22699;51.034;3.730;2023-04-03T16:01:49;12.30;47.20
36716;DHT22;22699;51.034;3.730;2023-04-03T16:04:16;12.10;47.60
36716;DHT22;22699;51.034;3.730;2023-04-03T16:06:42;11.80;48.30
36716;DHT22;22699;51.034;3.730;2023-04-03T16:09:08;11.80;48.50
36716;DHT22;22699;51.034;3.730;2023-04-03T16:11:34;11.80;48.50
36716;DHT22;22699;51.034;3.730;2023-04-03T16:14:02;11.70;48.40
36716;DHT22;22699;51.034;3.730;2023-04-03T16:16:28;11.70;49.00
36716;DHT22;22699;51.034;3.730;2023-04-03T16:18:55;11.70;48.70
36716;DHT22;22699;51.034;3.730;2023-04-03T16:21:21;11.60;48.80
36716;DHT22;22699;51.034;3.730;2023-04-03T16:23:48;12.00;48.50
36716;DHT22;22699;51.034;3.730;2023-04-03T16:26:13;11.70;48.00
36716;DHT22;22699;51.034;3.730;2023-04-03T16:28:39;11.80;47.60
36716;DHT22;22699;51.034;3.730;2023-04-03T16:31:06;11.70;46.70
36716;DHT22;22699;51.034;3.730;2023-04-03T16:33:32;11.50;47.00
36716;DHT22;22699;51.034;3.730;2023-04-03T16:35:58;11.50;46.90
36716;DHT22;22699;51.034;3.730;2023-04-03T16:38:24;11.30;47.40
36716;DHT22;22699;51.034;3.730;2023-04-03T16:40:50;11.40;47.80
36716;DHT22;22699;51.034;3.730;2023-04-03T16:43:17;11.30;48.20
36716;DHT22;22699;51.034;3.730;2023-04-03T16:45:43;11.40;48.30
36716;DHT22;22699;51.034;3.730;2023-04-03T16:48:09;11.40;48.30
36716;DHT22;22699;51.034;3.730;2023-04-03T16:50:34;11.50;48.40
36716;DHT22;22699;51.034;3.730;2023-04-03T16:53:01;11.40;48.10
36716;DHT22;22699;51.034;3.730;2023-04-03T16:55:28;11.60;48.50
36716;DHT22;22699;51.034;3.730;2023-04-03T16:57:54;11.70;48.30
36716;DHT22;22699;51.034;3.730;2023-04-03T17:00:20;11.80;48.30
36716;DHT22;22699;51.034;3.730;2023-04-03T17:02:46;11.70;48.60
36716;DHT22;22699;51.034;3.730;2023-04-03T17:05:12;11.70;48.30
36716;DHT22;22699;51.034;3.730;2023-04-03T17:07:37;11.60;48.50
36716;DHT22;22699;51.034;3.730;2023-04-03T17:10:03;11.40;49.00
36716;DHT22;22699;51.034;3.730;2023-04-03T17:12:29;11.40;48.50
36716;DHT22;22699;51.034;3.730;2023-04-03T17:14:54;11.30;48.30
36716;DHT22;22699;51.034;3.730;2023-04-03T17:17:22;11.30;48.50
36716;DHT22;22699;51.034;3.730;2023-04-03T17:19:49;11.20;48.80
36716;DHT22;22699;51.034;3.730;2023-04-03T17:22:15;11.20;48.60
36716;DHT22;22699;51.034;3.730;2023-04-03T17:24:44;11.20;48.70
36716;DHT22;22699;51.034;3.730;2023-04-03T17:27:09;11.20;49.30
36716;DHT22;22699;51.034;3.730;2023-04-03T17:29:35;11.20;49.00
36716;DHT22;22699;51.034;3.730;2023-04-03T17:32:01;11.40;49.20
36716;DHT22;22699;51.034;3.730;2023-04-03T17:34:26;11.20;49.70
36716;DHT22;22699;51.034;3.730;2023-04-03T17:36:52;11.10;50.00
36716;DHT22;22699;51.034;3.730;2023-04-03T17:39:17;11.10;50.50
36716;DHT22;22699;51.034;3.730;2023-04-03T17:41:43;11.10;50.70
36716;DHT22;22699;51.034;3.730;2023-04-03T17:44:10;10.90;51.10
36716;DHT22;22699;51.034;3.730;2023-04-03T17:46:36;10.90;51.30
36716;DHT22;22699;51.034;3.730;2023-04-03T17:49:04;10.80;51.70
36716;DHT22;22699;51.034;3.730;2023-04-03T17:51:32;11.00;52.00
36716;DHT22;22699;51.034;3.730;2023-04-03T17:54:01;10.60;52.10
36716;DHT22;22699;51.034;3.730;2023-04-03T17:56:29;10.50;52.00
36716;DHT22;22699;51.034;3.730;2023-04-03T17:58:56;10.50;52.50
36716;DHT22;22699;51.034;3.730;2023-04-03T18:01:34;10.60;52.90
36716;DHT22;22699;51.034;3.730;2023-04-03T18:04:03;10.50;52.40
36716;DHT22;22699;51.034;3.730;2023-04-03T18:06:39;10.40;52.90
36716;DHT22;22699;51.034;3.730;2023-04-03T18:09:15;10.50;53.10
36716;DHT22;22699;51.034;3.730;2023-04-03T18:11:42;10.40;53.30
36716;DHT22;22699;51.034;3.730;2023-04-03T18:14:09;10.30;53.60